createdAt,value
2023-01-06T00:01:17.186Z,9.60
2023-01-06T00:03:45.183Z,9.60
2023-01-06T00:06:13.605Z,9.60
2023-01-06T00:08:42.669Z,9.60
2023-01-06T00:11:12.832Z,9.60
2023-01-06T00:13:41.198Z,9.60
2023-01-06T00:16:11.004Z,9.60
2023-01-06T00:18:39.221Z,9.60
2023-01-06T00:21:07.702Z,9.60
2023-01-06T00:23:36.709Z,9.60
2023-01-06T00:26:07.638Z,9.60
2023-01-06T00:28:35.708Z,9.60
2023-01-06T00:31:08.100Z,9.60
2023-01-06T00:33:35.994Z,9.50
2023-01-06T00:36:04.392Z,9.50
2023-01-06T00:38:32.387Z,9.50
2023-01-06T00:41:00.113Z,9.50
2023-01-06T00:43:29.177Z,9.50
2023-01-06T00:45:56.943Z,9.50
2023-01-06T00:48:24.713Z,9.50
2023-01-06T00:50:52.431Z,9.50
2023-01-06T00:53:20.195Z,9.50
2023-01-06T00:55:47.934Z,9.50
2023-01-06T00:58:15.650Z,9.50
2023-01-06T01:00:44.719Z,9.50
2023-01-06T01:03:12.478Z,9.50
2023-01-06T01:05:40.251Z,9.50
2023-01-06T01:08:07.972Z,9.50
2023-01-06T01:10:36.634Z,9.50
2023-01-06T01:13:04.401Z,9.50
2023-01-06T01:15:32.304Z,9.50
2023-01-06T01:18:01.434Z,9.50
2023-01-06T01:20:29.172Z,9.50
2023-01-06T01:22:56.898Z,9.50
2023-01-06T01:25:24.620Z,9.50
2023-01-06T01:27:53.019Z,9.50
2023-01-06T01:30:21.253Z,9.50
2023-01-06T01:32:49.057Z,9.50
2023-01-06T01:35:18.327Z,9.50
2023-01-06T01:37:46.030Z,9.50
2023-01-06T01:40:13.875Z,9.40
2023-01-06T01:42:41.602Z,9.50
2023-01-06T01:45:21.724Z,9.50
2023-01-06T01:47:52.312Z,9.50
2023-01-06T01:50:29.536Z,9.50
2023-01-06T01:53:01.228Z,9.40
2023-01-06T01:55:30.566Z,9.50
2023-01-06T01:58:01.751Z,9.40
2023-01-06T02:00:29.546Z,9.40
2023-01-06T02:02:58.101Z,9.40
2023-01-06T02:05:29.243Z,9.40
2023-01-06T02:07:59.578Z,9.40
2023-01-06T02:10:27.361Z,9.40
2023-01-06T02:12:58.811Z,9.40
2023-01-06T02:15:28.822Z,9.40
2023-01-06T02:18:20.088Z,9.40
2023-01-06T02:20:59.757Z,9.40
2023-01-06T02:23:59.927Z,9.40
2023-01-06T02:27:12.490Z,9.40
2023-01-06T02:30:22.091Z,9.40
2023-01-06T02:33:05.304Z,9.40
2023-01-06T02:36:02.349Z,9.40
2023-01-06T02:38:41.674Z,9.40
2023-01-06T02:41:14.949Z,9.40
2023-01-06T02:43:52.835Z,9.40
2023-01-06T02:46:33.150Z,9.40
2023-01-06T02:49:13.169Z,9.40
2023-01-06T02:51:50.240Z,9.40
2023-01-06T02:54:26.292Z,9.40
2023-01-06T02:57:01.626Z,9.40
2023-01-06T02:59:34.323Z,9.40
2023-01-06T03:02:03.652Z,9.40
2023-01-06T03:04:36.613Z,9.40
2023-01-06T03:07:07.193Z,9.30
2023-01-06T03:09:37.445Z,9.30
2023-01-06T03:12:13.064Z,9.30
2023-01-06T03:14:44.259Z,9.30
2023-01-06T03:17:12.473Z,9.30
2023-01-06T03:19:41.708Z,9.30
2023-01-06T03:22:10.552Z,9.30
2023-01-06T03:24:39.341Z,9.30
2023-01-06T03:27:07.221Z,9.30
2023-01-06T03:29:36.718Z,9.30
2023-01-06T03:32:11.513Z,9.30
2023-01-06T03:35:00.749Z,9.30
2023-01-06T03:37:37.892Z,9.30
2023-01-06T03:40:11.488Z,9.30
2023-01-06T03:43:00.765Z,9.30
2023-01-06T03:45:39.842Z,9.30
2023-01-06T03:48:15.036Z,9.30
2023-01-06T03:50:51.504Z,9.30
2023-01-06T03:53:28.967Z,9.30
2023-01-06T03:56:07.389Z,9.30
2023-01-06T03:58:37.036Z,9.30
2023-01-06T04:01:06.779Z,9.20
2023-01-06T04:03:35.310Z,9.20
2023-01-06T04:06:04.590Z,9.20
2023-01-06T04:08:32.349Z,9.20
2023-01-06T04:11:00.059Z,9.20
2023-01-06T04:13:26.819Z,9.20
2023-01-06T04:15:54.606Z,9.20
2023-01-06T04:18:22.324Z,9.20
2023-01-06T04:20:50.047Z,9.20
2023-01-06T04:23:19.131Z,9.20
2023-01-06T04:25:46.886Z,9.20
2023-01-06T04:28:14.622Z,9.20
2023-01-06T04:30:42.376Z,9.20
2023-01-06T04:33:10.114Z,9.20
2023-01-06T04:35:37.852Z,9.20
2023-01-06T04:38:05.568Z,9.20
2023-01-06T04:40:34.655Z,9.20
2023-01-06T04:43:05.256Z,9.20
2023-01-06T04:45:33.376Z,9.20
2023-01-06T04:48:01.411Z,9.20
2023-01-06T04:50:29.206Z,9.10
2023-01-06T04:52:56.975Z,9.10
2023-01-06T04:55:24.818Z,9.10
2023-01-06T04:57:54.263Z,9.10
2023-01-06T05:00:22.297Z,9.10
2023-01-06T05:02:50.201Z,9.10
2023-01-06T05:05:18.355Z,9.10
2023-01-06T05:07:46.068Z,9.10
2023-01-06T05:10:13.819Z,9.10
2023-01-06T05:12:41.558Z,9.10
2023-01-06T05:15:11.716Z,9.10
2023-01-06T05:17:40.002Z,9.10
2023-01-06T05:20:08.526Z,9.10
2023-01-06T05:22:36.271Z,9.10
2023-01-06T05:25:04.486Z,9.10
2023-01-06T05:27:32.251Z,9.10
2023-01-06T05:29:59.988Z,9.10
2023-01-06T05:32:29.081Z,9.10
2023-01-06T05:34:56.880Z,9.00
2023-01-06T05:37:24.638Z,9.00
2023-01-06T05:39:52.384Z,9.00
2023-01-06T05:42:20.139Z,9.00
2023-01-06T05:44:47.866Z,9.00
2023-01-06T05:47:15.667Z,9.00
2023-01-06T05:49:45.712Z,9.00
2023-01-06T05:52:14.567Z,9.00
2023-01-06T05:54:42.321Z,9.10
2023-01-06T05:57:11.503Z,9.00
2023-01-06T05:59:39.352Z,9.00
2023-01-06T06:02:07.182Z,9.00
2023-01-06T06:04:34.974Z,9.00
2023-01-06T06:07:04.063Z,9.00
2023-01-06T06:09:31.815Z,9.00
2023-01-06T06:11:59.532Z,9.00
2023-01-06T06:14:27.390Z,9.00
2023-01-06T06:16:56.098Z,9.00
2023-01-06T06:19:23.866Z,9.00
2023-01-06T06:21:51.638Z,9.00
2023-01-06T06:24:20.707Z,9.00
2023-01-06T06:26:48.440Z,9.00
2023-01-06T06:29:16.248Z,9.00
2023-01-06T06:31:44.477Z,9.00
2023-01-06T06:34:14.531Z,9.00
2023-01-06T06:36:42.258Z,9.00
2023-01-06T06:39:10.032Z,9.00
2023-01-06T06:41:39.103Z,9.00
2023-01-06T06:44:06.930Z,9.00
2023-01-06T06:46:34.664Z,9.00
2023-01-06T06:49:02.418Z,9.00
2023-01-06T06:51:31.569Z,9.00
2023-01-06T06:53:59.345Z,9.00
2023-01-06T06:56:27.121Z,9.00
2023-01-06T06:58:56.194Z,9.00
2023-01-06T07:01:24.130Z,9.00
2023-01-06T07:03:51.921Z,9.00
2023-01-06T07:06:23.801Z,9.00
2023-01-06T07:08:52.179Z,9.00
2023-01-06T07:11:20.379Z,9.00
2023-01-06T07:13:48.384Z,9.00
2023-01-06T07:16:18.071Z,9.00
2023-01-06T07:18:46.014Z,9.00
2023-01-06T07:21:13.811Z,9.00
2023-01-06T07:23:41.543Z,9.00
2023-01-06T07:26:11.663Z,9.00
2023-01-06T07:28:39.431Z,9.00
2023-01-06T07:31:07.246Z,9.00
2023-01-06T07:33:36.349Z,8.90
2023-01-06T07:36:04.307Z,9.00
2023-01-06T07:38:32.020Z,9.00
2023-01-06T07:41:00.737Z,9.00
2023-01-06T07:43:28.539Z,9.00
2023-01-06T07:45:56.364Z,9.00
2023-01-06T07:48:24.158Z,9.00
2023-01-06T07:50:53.239Z,9.00
2023-01-06T07:53:21.802Z,9.00
2023-01-06T07:55:53.403Z,9.00
2023-01-06T07:58:23.752Z,9.00
2023-01-06T08:00:51.496Z,9.00
2023-01-06T08:03:19.298Z,9.00
2023-01-06T08:05:47.028Z,9.00
2023-01-06T08:08:16.190Z,9.00
2023-01-06T08:10:44.330Z,9.00
2023-01-06T08:13:12.477Z,9.00
2023-01-06T08:15:40.819Z,9.10
2023-01-06T08:18:09.178Z,9.00
2023-01-06T08:20:36.966Z,9.10
2023-01-06T08:23:04.789Z,9.10
2023-01-06T08:25:33.911Z,9.10
2023-01-06T08:28:01.674Z,9.10
2023-01-06T08:30:29.803Z,9.10
2023-01-06T08:32:58.324Z,9.20
2023-01-06T08:35:26.420Z,9.20
2023-01-06T08:37:54.149Z,9.20
2023-01-06T08:40:21.915Z,9.20
2023-01-06T08:42:51.025Z,9.20
2023-01-06T08:45:19.236Z,9.20
2023-01-06T08:47:47.118Z,9.20
2023-01-06T08:50:14.948Z,9.20
2023-01-06T08:52:42.700Z,9.20
2023-01-06T08:55:10.568Z,9.20
2023-01-06T08:57:38.306Z,9.20
2023-01-06T09:00:09.186Z,9.20
2023-01-06T09:02:36.923Z,9.20
2023-01-06T09:05:06.256Z,9.20
2023-01-06T09:07:34.095Z,9.20
2023-01-06T09:10:01.818Z,9.20
2023-01-06T09:12:29.623Z,9.20
2023-01-06T09:14:57.373Z,9.20
2023-01-06T09:17:26.502Z,9.20
2023-01-06T09:19:54.233Z,9.20
2023-01-06T09:22:22.008Z,9.20
2023-01-06T09:24:49.806Z,9.20
2023-01-06T09:27:17.556Z,9.30
2023-01-06T09:29:45.305Z,9.30
2023-01-06T09:32:13.086Z,9.30
2023-01-06T09:34:42.203Z,9.30
2023-01-06T09:37:10.255Z,9.30
2023-01-06T09:39:38.062Z,9.30
2023-01-06T09:42:28.763Z,9.30
2023-01-06T09:44:59.254Z,9.40
2023-01-06T09:47:30.628Z,9.40
2023-01-06T09:50:06.943Z,9.40
2023-01-06T09:52:40.805Z,9.40
2023-01-06T09:55:15.202Z,9.40
2023-01-06T09:57:49.334Z,9.50
2023-01-06T10:00:28.169Z,9.40
2023-01-06T10:02:56.448Z,9.40
2023-01-06T10:05:33.389Z,9.40
2023-01-06T10:08:08.642Z,9.40
2023-01-06T10:10:43.638Z,9.50
2023-01-06T10:13:27.542Z,9.40
2023-01-06T10:16:07.047Z,9.50
2023-01-06T10:18:42.994Z,9.50
2023-01-06T10:21:18.831Z,9.50
2023-01-06T10:24:07.088Z,9.50
2023-01-06T10:26:43.436Z,9.50
2023-01-06T10:29:14.672Z,9.50
2023-01-06T10:31:45.467Z,9.40
2023-01-06T10:34:21.291Z,9.40
2023-01-06T10:36:55.677Z,9.40
2023-01-06T10:39:27.034Z,9.40
2023-01-06T10:42:17.846Z,9.40
2023-01-06T10:44:45.552Z,9.40
2023-01-06T10:47:18.192Z,9.40
2023-01-06T10:49:46.363Z,9.40
2023-01-06T10:52:15.638Z,9.40
2023-01-06T10:54:44.329Z,9.40
2023-01-06T10:57:17.420Z,9.50
2023-01-06T11:00:16.569Z,9.50
2023-01-06T11:02:49.948Z,9.50
2023-01-06T11:05:24.336Z,9.50
2023-01-06T11:07:58.001Z,9.50
2023-01-06T11:10:31.155Z,9.50
2023-01-06T11:13:01.289Z,9.60
2023-01-06T11:15:37.056Z,9.60
2023-01-06T11:18:06.587Z,9.60
2023-01-06T11:20:35.202Z,9.60
2023-01-06T11:23:22.637Z,9.60
2023-01-06T11:26:03.006Z,9.60
2023-01-06T11:28:31.107Z,9.60
2023-01-06T11:31:02.868Z,9.60
2023-01-06T11:33:32.892Z,9.60
2023-01-06T11:36:09.229Z,9.60
2023-01-06T11:38:45.365Z,9.70
2023-01-06T11:41:19.199Z,9.70
2023-01-06T11:43:49.234Z,9.70
2023-01-06T11:46:23.573Z,9.70
2023-01-06T11:49:02.127Z,9.70
2023-01-06T11:51:46.262Z,9.80
2023-01-06T11:54:25.971Z,9.80
2023-01-06T11:57:13.564Z,9.80
2023-01-06T12:00:05.042Z,9.80
2023-01-06T12:02:41.987Z,9.90
2023-01-06T12:05:19.286Z,9.90
2023-01-06T12:07:52.699Z,9.90
2023-01-06T12:10:25.712Z,9.90
2023-01-06T12:12:53.585Z,10.00
2023-01-06T12:15:22.924Z,10.00
2023-01-06T12:17:55.723Z,10.00
2023-01-06T12:20:28.064Z,10.00
2023-01-06T12:23:01.273Z,10.00
2023-01-06T12:25:34.024Z,10.00
2023-01-06T12:28:05.011Z,10.10
2023-01-06T12:30:36.829Z,10.00
2023-01-06T12:33:12.887Z,10.00
2023-01-06T12:35:42.737Z,10.10
2023-01-06T12:38:22.820Z,10.00
2023-01-06T12:40:56.401Z,10.00
2023-01-06T12:43:26.431Z,10.00
2023-01-06T12:46:00.174Z,10.00
2023-01-06T12:48:39.858Z,10.10
2023-01-06T12:51:15.064Z,10.10
2023-01-06T12:53:46.401Z,10.10
2023-01-06T12:56:29.949Z,10.10
2023-01-06T12:59:06.192Z,10.10
2023-01-06T13:01:40.689Z,10.10
2023-01-06T13:04:50.145Z,10.10
2023-01-06T13:07:28.508Z,10.10
2023-01-06T13:10:04.687Z,10.10
2023-01-06T13:13:02.279Z,10.10
2023-01-06T13:15:31.772Z,10.10
2023-01-06T13:18:09.538Z,10.10
2023-01-06T13:20:42.150Z,10.10
2023-01-06T13:23:39.634Z,10.10
2023-01-06T13:26:32.279Z,10.10
2023-01-06T13:29:11.225Z,10.10
2023-01-06T13:32:03.735Z,10.00
2023-01-06T13:34:57.708Z,10.00
2023-01-06T13:37:35.846Z,10.00
2023-01-06T13:40:13.373Z,10.00
2023-01-06T13:42:45.787Z,10.00
2023-01-06T13:45:19.592Z,10.00
2023-01-06T13:47:49.119Z,10.10
2023-01-06T13:50:20.339Z,10.10
2023-01-06T13:52:49.006Z,10.10
2023-01-06T13:55:29.415Z,10.10
2023-01-06T13:57:58.845Z,10.10
2023-01-06T14:00:29.536Z,10.10
2023-01-06T14:03:28.060Z,10.10
2023-01-06T14:05:58.384Z,10.10
2023-01-06T14:08:30.765Z,10.10
2023-01-06T14:11:04.252Z,10.10
2023-01-06T14:13:36.039Z,10.10
2023-01-06T14:16:08.653Z,10.10
2023-01-06T14:18:40.534Z,10.10
2023-01-06T14:21:18.463Z,10.10
2023-01-06T14:24:00.347Z,10.00
2023-01-06T14:26:49.044Z,10.00
2023-01-06T14:29:45.520Z,10.00
2023-01-06T14:32:53.162Z,10.00
2023-01-06T14:35:28.436Z,10.00
2023-01-06T14:37:59.958Z,10.00
2023-01-06T14:40:30.109Z,10.00
2023-01-06T14:43:00.821Z,10.00
2023-01-06T14:45:30.716Z,10.10
2023-01-06T14:48:02.804Z,10.00
2023-01-06T14:50:46.206Z,10.00
2023-01-06T14:53:22.855Z,10.00
2023-01-06T14:55:51.650Z,10.00
2023-01-06T14:58:29.615Z,10.00
2023-01-06T15:00:57.547Z,9.90
2023-01-06T15:03:26.864Z,9.90
2023-01-06T15:08:47.899Z,9.90
2023-01-06T15:11:26.108Z,9.90
2023-01-06T15:13:54.267Z,9.90
2023-01-06T15:16:32.153Z,9.90
2023-01-06T15:19:00.668Z,9.90
2023-01-06T15:21:28.894Z,9.90
2023-01-06T15:23:58.258Z,9.80
2023-01-06T15:26:28.136Z,9.80
2023-01-06T15:29:01.844Z,9.80
2023-01-06T15:31:32.973Z,9.80
2023-01-06T15:34:02.151Z,9.80
2023-01-06T15:36:31.124Z,9.80
2023-01-06T15:39:06.535Z,9.80
2023-01-06T15:41:36.677Z,9.80
2023-01-06T15:44:21.779Z,9.80
2023-01-06T15:46:50.824Z,9.80
2023-01-06T15:49:27.192Z,9.80
2023-01-06T15:51:57.617Z,9.80
2023-01-06T15:54:29.081Z,9.80
2023-01-06T15:57:05.117Z,9.80
2023-01-06T15:59:40.155Z,9.80
2023-01-06T16:02:18.323Z,9.80
2023-01-06T16:04:48.943Z,9.80
2023-01-06T16:07:33.823Z,9.80
2023-01-06T16:10:03.258Z,9.80
2023-01-06T16:12:31.069Z,9.80
2023-01-06T16:14:58.821Z,9.80
2023-01-06T16:17:30.867Z,9.80
2023-01-06T16:20:01.083Z,9.80
2023-01-06T16:22:38.905Z,9.80
2023-01-06T16:25:24.776Z,9.80
2023-01-06T16:27:54.338Z,9.80
2023-01-06T16:30:25.405Z,9.80
2023-01-06T16:32:54.242Z,9.80
2023-01-06T16:35:24.396Z,9.80
2023-01-06T16:37:52.823Z,9.80
2023-01-06T16:40:23.907Z,9.80
2023-01-06T16:42:56.910Z,9.70
2023-01-06T16:45:28.887Z,9.70
2023-01-06T16:47:57.215Z,9.70
2023-01-06T16:50:26.931Z,9.70
2023-01-06T16:53:03.663Z,9.70
2023-01-06T16:55:32.919Z,9.70
2023-01-06T16:58:01.422Z,9.70
2023-01-06T17:00:30.981Z,9.70
2023-01-06T17:02:59.069Z,9.70
2023-01-06T17:05:29.065Z,9.70
2023-01-06T17:07:59.342Z,9.70
2023-01-06T17:10:27.955Z,9.70
2023-01-06T17:13:19.036Z,9.70
2023-01-06T17:15:46.876Z,9.70
2023-01-06T17:18:25.816Z,9.70
2023-01-06T17:20:58.948Z,9.70
2023-01-06T17:23:26.719Z,9.70
2023-01-06T17:26:01.338Z,9.70
2023-01-06T17:28:32.945Z,9.70
2023-01-06T17:31:01.690Z,9.70
2023-01-06T17:33:30.562Z,9.70
2023-01-06T17:35:59.608Z,9.70
2023-01-06T17:38:27.433Z,9.70
2023-01-06T17:40:56.591Z,9.70
2023-01-06T17:43:28.432Z,9.70
2023-01-06T17:45:57.914Z,9.70
2023-01-06T17:48:27.193Z,9.70
2023-01-06T17:50:56.789Z,9.70
2023-01-06T17:53:46.966Z,9.70
2023-01-06T17:56:14.972Z,9.70
2023-01-06T17:58:44.759Z,9.70
2023-01-06T18:01:20.404Z,9.70
2023-01-06T18:03:48.896Z,9.70
2023-01-06T18:06:25.911Z,9.70
2023-01-06T18:09:11.944Z,9.70
2023-01-06T18:11:41.164Z,9.70
2023-01-06T18:14:32.749Z,9.70
2023-01-06T18:17:22.951Z,9.70
2023-01-06T18:19:51.205Z,9.70
2023-01-06T18:22:21.236Z,9.70
2023-01-06T18:24:50.980Z,9.70
2023-01-06T18:27:24.580Z,9.70
2023-01-06T18:29:52.725Z,9.70
2023-01-06T18:32:31.069Z,9.70
2023-01-06T18:35:00.640Z,9.70
2023-01-06T18:41:18.754Z,9.70
2023-01-06T18:43:46.528Z,9.70
2023-01-06T18:46:16.652Z,9.70
2023-01-06T18:48:48.051Z,9.70
2023-01-06T18:51:20.159Z,9.70
2023-01-06T18:53:49.937Z,9.70
2023-01-06T18:56:20.905Z,9.70
2023-01-06T18:58:50.440Z,9.60
2023-01-06T19:01:20.738Z,9.60
2023-01-06T19:03:59.130Z,9.60
2023-01-06T19:06:39.378Z,9.60
2023-01-06T19:09:24.593Z,9.60
2023-01-06T19:12:00.563Z,9.60
2023-01-06T19:14:30.276Z,9.60
2023-01-06T19:16:59.627Z,9.60
2023-01-06T19:19:32.692Z,9.60
2023-01-06T19:22:17.144Z,9.60
2023-01-06T19:24:48.986Z,9.60
2023-01-06T19:27:28.325Z,9.60
2023-01-06T19:30:02.208Z,9.60
2023-01-06T19:32:36.555Z,9.60
2023-01-06T19:35:16.514Z,9.60
2023-01-06T19:37:44.314Z,9.60
2023-01-06T19:40:26.282Z,9.60
2023-01-06T19:42:55.233Z,9.60
2023-01-06T19:45:29.969Z,9.60
2023-01-06T19:48:00.309Z,9.60
2023-01-06T19:50:29.398Z,9.60
2023-01-06T19:52:58.875Z,9.50
2023-01-06T19:55:28.216Z,9.60
2023-01-06T19:57:58.017Z,9.60
2023-01-06T20:00:31.083Z,9.50
2023-01-06T20:03:01.647Z,9.60
2023-01-06T20:05:32.521Z,9.50
2023-01-06T20:08:00.268Z,9.50
2023-01-06T20:10:28.011Z,9.50
2023-01-06T20:12:55.782Z,9.50
2023-01-06T20:15:23.510Z,9.50
2023-01-06T20:17:51.253Z,9.50
2023-01-06T20:20:19.098Z,9.50
2023-01-06T20:22:48.210Z,9.50
2023-01-06T20:25:16.043Z,9.50
2023-01-06T20:27:43.870Z,9.50
2023-01-06T20:30:12.109Z,9.50
2023-01-06T20:32:39.869Z,9.50
2023-01-06T20:35:09.224Z,9.50
2023-01-06T20:37:38.928Z,9.50
2023-01-06T20:40:09.636Z,9.50
2023-01-06T20:42:37.369Z,9.40
2023-01-06T20:45:06.087Z,9.50
2023-01-06T20:47:33.915Z,9.50
2023-01-06T20:50:01.671Z,9.50
2023-01-06T20:52:29.420Z,9.40
2023-01-06T20:54:57.125Z,9.40
2023-01-06T20:57:26.325Z,9.40
2023-01-06T20:59:54.059Z,9.40
2023-01-06T21:02:21.938Z,9.40
2023-01-06T21:04:49.752Z,9.40
2023-01-06T21:07:17.491Z,9.40
2023-01-06T21:09:45.232Z,9.40
2023-01-06T21:12:13.004Z,9.40
2023-01-06T21:14:42.094Z,9.40
2023-01-06T21:17:09.847Z,9.30
2023-01-06T21:19:37.589Z,9.30
2023-01-06T21:22:05.361Z,9.30
2023-01-06T21:24:33.102Z,9.30
2023-01-06T21:27:00.871Z,9.30
2023-01-06T21:29:28.622Z,9.30
2023-01-06T21:31:57.694Z,9.30
2023-01-06T21:34:25.540Z,9.30
2023-01-06T21:36:53.311Z,9.30
2023-01-06T21:39:21.064Z,9.30
2023-01-06T21:42:06.148Z,9.30
2023-01-06T21:44:33.916Z,9.30
2023-01-06T21:47:03.712Z,9.30
2023-01-06T21:49:31.802Z,9.30
2023-01-06T21:52:01.402Z,9.30
2023-01-06T21:54:29.217Z,9.30
2023-01-06T21:56:57.320Z,9.30
2023-01-06T21:59:25.124Z,9.30
2023-01-06T22:01:53.013Z,9.30
2023-01-06T22:04:22.211Z,9.30
2023-01-06T22:06:50.235Z,9.30
2023-01-06T22:09:21.964Z,9.40
2023-01-06T22:11:50.086Z,9.30
2023-01-06T22:14:18.788Z,9.40
2023-01-06T22:16:47.265Z,9.40
2023-01-06T22:19:16.354Z,9.40
2023-01-06T22:21:47.050Z,9.40
2023-01-06T22:24:18.238Z,9.40
2023-01-06T22:26:46.233Z,9.30
2023-01-06T22:29:13.974Z,9.30
2023-01-06T22:31:41.735Z,9.30
2023-01-06T22:34:09.634Z,9.30
2023-01-06T22:36:37.366Z,9.30
2023-01-06T22:39:07.183Z,9.30
2023-01-06T22:41:35.002Z,9.30
2023-01-06T22:44:02.798Z,9.30
2023-01-06T22:46:30.867Z,9.30
2023-01-06T22:48:58.871Z,9.30
2023-01-06T22:51:28.461Z,9.30
2023-01-06T22:53:56.877Z,9.30
2023-01-06T22:56:25.985Z,9.30
2023-01-06T22:58:53.746Z,9.30
2023-01-06T23:01:22.184Z,9.30
2023-01-06T23:03:50.207Z,9.30
2023-01-06T23:06:18.319Z,9.30
2023-01-06T23:08:59.031Z,9.30
2023-01-06T23:11:31.216Z,9.30
2023-01-06T23:13:59.611Z,9.30
2023-01-06T23:16:29.844Z,9.30
2023-01-06T23:18:57.668Z,9.30
2023-01-06T23:21:27.238Z,9.30
2023-01-06T23:23:55.184Z,9.30
2023-01-06T23:26:27.079Z,9.30
2023-01-06T23:28:57.348Z,9.30
2023-01-06T23:31:27.221Z,9.30
2023-01-06T23:33:56.674Z,9.30
2023-01-06T23:36:27.043Z,9.30
2023-01-06T23:38:56.329Z,9.40
2023-01-06T23:41:26.882Z,9.30
2023-01-06T23:43:57.331Z,9.30
2023-01-06T23:46:27.213Z,9.30
2023-01-06T23:48:55.567Z,9.30
2023-01-06T23:51:24.804Z,9.30
2023-01-06T23:53:53.035Z,9.30
2023-01-06T23:56:22.686Z,9.30
2023-01-06T23:58:52.494Z,9.30
